Time;durP1;ratioP1;P1;durP2;ratioP2;P2;SDS_P1;SDS_P2;PMS_P1;PMS_P2;Temp;Humidity;BMP_temperature;BMP_pressure;BME280_temperature;BME280_humidity;BME280_pressure;Samples;Min_cycle;Max_cycle;Signal;HPM_P1;HPM_P2
2023/04/17 04:32:29;;;;;;;9.70;6.68;;;11.60;64.70;;;;;;4930443;29;20062;-77
2023/04/17 04:34:57;;;;;;;9.98;6.68;;;11.50;64.60;;;;;;4927068;29;20436;-77
2023/04/17 04:37:28;;;;;;;12.05;7.07;;;11.50;64.30;;;;;;4923300;29;20024;-77
2023/04/17 04:40:00;;;;;;;10.02;6.18;;;11.50;64.30;;;;;;4913664;29;20028;-77
2023/04/17 04:42:27;;;;;;;10.27;6.90;;;11.50;64.50;;;;;;4918475;29;20055;-77
2023/04/17 04:44:52;;;;;;;10.40;6.90;;;11.50;64.50;;;;;;4919124;29;20024;-77
2023/04/17 04:47:18;;;;;;;9.43;6.10;;;11.50;64.30;;;;;;4919211;29;20373;-77
2023/04/17 04:49:44;;;;;;;9.25;6.18;;;11.40;64.50;;;;;;4919378;29;20036;-77
2023/04/17 04:52:10;;;;;;;11.25;7.05;;;11.30;64.60;;;;;;4919287;29;20080;-77
2023/04/17 04:54:36;;;;;;;9.90;6.25;;;11.40;64.60;;;;;;4919172;29;20043;-76
2023/04/17 04:57:01;;;;;;;8.57;6.10;;;11.40;64.20;;;;;;4919160;29;20083;-76
2023/04/17 04:59:27;;;;;;;13.07;6.70;;;11.40;64.30;;;;;;4917992;29;20055;-77
2023/04/17 05:01:52;;;;;;;9.23;6.13;;;11.40;64.20;;;;;;4927480;29;20068;-77
2023/04/17 05:04:18;;;;;;;10.55;6.38;;;11.30;64.10;;;;;;4927431;29;20450;-77
2023/04/17 05:06:44;;;;;;;11.00;6.57;;;11.30;64.30;;;;;;4951857;29;20027;-77
2023/04/17 05:09:10;;;;;;;8.20;6.18;;;11.30;64.50;;;;;;4919384;29;20032;-77
2023/04/17 05:11:35;;;;;;;12.82;7.07;;;11.20;64.40;;;;;;4927582;29;20032;-76
2023/04/17 05:14:01;;;;;;;9.70;6.82;;;11.20;64.60;;;;;;4918133;29;20116;-76
2023/04/17 05:16:27;;;;;;;10.93;6.85;;;11.20;64.60;;;;;;4919205;29;20120;-76
2023/04/17 05:18:53;;;;;;;13.02;7.20;;;11.20;64.40;;;;;;4902517;29;20028;-77
2023/04/17 05:21:19;;;;;;;11.57;5.88;;;11.20;64.20;;;;;;4940426;29;20566;-76
2023/04/17 05:23:45;;;;;;;11.50;7.10;;;11.20;64.40;;;;;;4941085;29;20064;-76
2023/04/17 05:26:11;;;;;;;9.70;6.85;;;11.20;64.40;;;;;;4902593;29;20029;-76
2023/04/17 05:28:37;;;;;;;10.15;6.95;;;11.20;64.40;;;;;;4915538;29;20080;-77
2023/04/17 05:31:03;;;;;;;11.38;7.20;;;11.20;64.30;;;;;;4917943;29;20048;-76
2023/04/17 05:33:28;;;;;;;11.85;7.18;;;11.10;64.30;;;;;;4921313;29;20036;-77
2023/04/17 05:35:54;;;;;;;13.98;8.20;;;11.10;64.40;;;;;;4934922;29;20124;-76
2023/04/17 05:38:20;;;;;;;11.70;7.47;;;11.10;64.20;;;;;;4956129;29;20028;-76
2023/04/17 05:40:45;;;;;;;11.85;7.95;;;11.10;64.20;;;;;;4925050;29;20082;-76
2023/04/17 05:43:11;;;;;;;10.35;7.00;;;11.10;64.40;;;;;;4924873;29;20079;-77
2023/04/17 05:45:37;;;;;;;14.23;8.25;;;11.00;64.30;;;;;;4926062;29;20034;-77
2023/04/17 05:48:03;;;;;;;11.73;7.90;;;11.00;64.90;;;;;;4923130;29;20030;-77
2023/04/17 05:50:29;;;;;;;11.27;7.55;;;10.90;65.30;;;;;;4922827;29;20048;-77
2023/04/17 05:52:55;;;;;;;13.90;7.75;;;11.00;65.20;;;;;;4922494;29;20571;-77
2023/04/17 05:55:21;;;;;;;12.77;7.90;;;11.10;64.70;;;;;;4922870;29;20035;-78
2023/04/17 05:57:46;;;;;;;11.02;8.25;;;11.10;64.60;;;;;;4921866;29;20491;-79
2023/04/17 06:00:14;;;;;;;12.20;8.05;;;11.20;64.40;;;;;;4926791;29;20043;-79
2023/04/17 06:02:41;;;;;;;12.57;8.82;;;11.20;64.30;;;;;;4923151;29;20036;-80
2023/04/17 06:05:07;;;;;;;12.32;8.63;;;11.20;64.50;;;;;;4924577;29;20554;-80
2023/04/17 06:07:33;;;;;;;16.63;9.00;;;11.30;64.20;;;;;;4941604;29;20034;-77
2023/04/17 06:10:00;;;;;;;14.90;8.90;;;11.30;64.20;;;;;;4937187;29;20114;-77
2023/04/17 06:12:26;;;;;;;11.95;7.70;;;11.40;63.90;;;;;;4931163;29;20108;-76
2023/04/17 06:14:51;;;;;;;14.00;9.02;;;11.50;64.00;;;;;;4927569;29;20157;-75
2023/04/17 06:17:17;;;;;;;12.30;8.27;;;11.60;63.50;;;;;;4925647;29;20036;-75
2023/04/17 06:19:43;;;;;;;10.35;7.93;;;11.70;63.30;;;;;;4913668;29;20455;-74
2023/04/17 06:22:09;;;;;;;13.00;8.13;;;11.70;63.90;;;;;;4941460;29;20027;-75
2023/04/17 06:24:35;;;;;;;13.40;8.52;;;11.70;64.00;;;;;;4922667;29;20036;-74
2023/04/17 06:27:02;;;;;;;14.20;9.13;;;11.70;64.60;;;;;;4922235;29;20020;-76
2023/04/17 06:29:28;;;;;;;9.68;7.28;;;11.80;64.10;;;;;;4920795;29;20087;-75
2023/04/17 06:31:54;;;;;;;10.35;7.82;;;11.80;64.00;;;;;;4922000;29;20083;-75
2023/04/17 06:34:20;;;;;;;14.27;7.78;;;11.80;63.70;;;;;;4942405;29;20487;-74
2023/04/17 06:36:46;;;;;;;15.18;8.73;;;11.90;64.20;;;;;;4923741;29;20110;-77
2023/04/17 06:39:12;;;;;;;12.32;7.85;;;11.90;64.00;;;;;;4934185;29;20060;-75
2023/04/17 06:41:38;;;;;;;13.88;8.63;;;12.00;64.00;;;;;;4928947;29;20094;-74
2023/04/17 06:44:03;;;;;;;12.63;8.07;;;12.10;63.70;;;;;;4937804;29;20068;-75
2023/04/17 06:46:29;;;;;;;12.18;8.18;;;12.10;63.50;;;;;;4934462;29;20035;-74
2023/04/17 06:48:58;;;;;;;13.90;8.32;;;12.20;63.90;;;;;;4922052;29;20036;-75
2023/04/17 06:51:26;;;;;;;11.25;8.13;;;12.30;63.70;;;;;;4920604;29;20032;-76
2023/04/17 06:53:52;;;;;;;14.70;9.10;;;12.40;63.80;;;;;;4920089;29;20040;-74
2023/04/17 06:56:18;;;;;;;14.30;7.93;;;12.50;63.50;;;;;;4929570;29;20031;-75
2023/04/17 06:58:44;;;;;;;12.73;8.00;;;12.70;63.40;;;;;;4918865;29;20036;-75
2023/04/17 07:01:11;;;;;;;11.57;7.68;;;12.80;63.10;;;;;;4920845;29;20035;-75
2023/04/17 07:03:41;;;;;;;11.93;7.55;;;13.00;63.40;;;;;;4918721;29;20028;-75
2023/04/17 07:06:07;;;;;;;15.02;7.38;;;13.20;62.80;;;;;;4942636;29;20038;-75
2023/04/17 07:08:33;;;;;;;12.40;7.45;;;13.30;62.30;;;;;;4952160;29;20426;-75
2023/04/17 07:10:58;;;;;;;10.45;5.90;;;13.30;62.10;;;;;;4923347;29;20057;-75
2023/04/17 07:13:24;;;;;;;9.63;6.57;;;13.40;61.50;;;;;;4934070;29;20477;-75
2023/04/17 07:15:54;;;;;;;10.68;6.60;;;13.50;62.00;;;;;;4930536;29;20496;-75
2023/04/17 07:18:24;;;;;;;11.88;7.25;;;13.60;61.30;;;;;;4928706;29;20052;-75
2023/04/17 07:20:50;;;;;;;7.95;6.43;;;13.70;60.90;;;;;;4922275;29;20042;-76
2023/04/17 07:23:16;;;;;;;10.18;6.78;;;13.90;60.50;;;;;;4921637;29;20095;-75
2023/04/17 07:25:42;;;;;;;12.10;7.05;;;14.00;60.30;;;;;;4939541;29;20028;-76
2023/04/17 07:28:08;;;;;;;9.90;6.15;;;14.30;59.70;;;;;;4923513;29;20391;-75
2023/04/17 07:30:34;;;;;;;12.25;6.30;;;14.60;58.90;;;;;;4936759;29;20051;-76
2023/04/17 07:33:00;;;;;;;9.80;6.55;;;14.90;58.30;;;;;;4928056;29;20028;-76
2023/04/17 07:35:26;;;;;;;8.47;6.07;;;15.00;57.40;;;;;;4932668;29;20024;-76
2023/04/17 07:37:52;;;;;;;12.60;7.15;;;14.70;56.40;;;;;;4943774;29;20747;-75
2023/04/17 07:40:18;;;;;;;12.77;6.60;;;14.50;57.10;;;;;;4943716;29;20122;-75
2023/04/17 07:42:44;;;;;;;15.35;7.68;;;14.50;57.80;;;;;;4921890;29;20482;-75
2023/04/17 07:45:10;;;;;;;6.85;5.55;;;15.10;56.10;;;;;;4921055;29;20514;-76
2023/04/17 07:47:36;;;;;;;9.50;5.88;;;15.80;55.40;;;;;;4935240;29;20031;-75
2023/04/17 07:50:02;;;;;;;8.77;5.93;;;16.10;54.50;;;;;;4924426;29;20056;-76
2023/04/17 07:52:28;;;;;;;7.75;5.40;;;17.10;53.00;;;;;;4938137;29;20039;-76
2023/04/17 07:54:55;;;;;;;7.20;5.30;;;19.30;48.70;;;;;;4938278;29;20067;-77
2023/04/17 07:57:21;;;;;;;7.53;5.40;;;21.60;42.60;;;;;;4902797;29;20078;-77
2023/04/17 07:59:47;;;;;;;8.18;5.68;;;22.40;39.00;;;;;;4916838;29;20028;-77
2023/04/17 08:02:14;;;;;;;8.73;5.47;;;23.10;37.40;;;;;;4920538;29;20032;-77
2023/04/17 08:04:40;;;;;;;8.40;5.53;;;24.50;35.70;;;;;;4925524;29;20031;-77
2023/04/17 08:07:09;;;;;;;6.97;4.70;;;25.80;33.10;;;;;;4935055;29;20131;-77
2023/04/17 08:09:36;;;;;;;7.35;5.10;;;26.90;33.40;;;;;;4919872;29;20591;-78
2023/04/17 08:12:01;;;;;;;8.05;4.97;;;27.20;30.70;;;;;;4951251;29;20035;-77
2023/04/17 08:14:27;;;;;;;7.85;5.28;;;28.00;30.80;;;;;;4957710;29;20054;-77
2023/04/17 08:16:53;;;;;;;6.18;4.80;;;28.50;29.40;;;;;;4942304;29;20403;-77
2023/04/17 08:19:19;;;;;;;7.78;5.32;;;28.70;29.40;;;;;;4903458;29;20032;-77
2023/04/17 08:21:48;;;;;;;6.25;4.55;;;29.80;28.50;;;;;;4920397;29;20032;-77
2023/04/17 08:24:13;;;;;;;7.82;4.68;;;30.90;26.80;;;;;;4920145;29;20090;-78
2023/04/17 08:26:39;;;;;;;6.30;5.38;;;31.30;25.50;;;;;;4920183;29;20039;-78
2023/04/17 08:29:05;;;;;;;8.00;5.55;;;31.60;24.80;;;;;;4918518;29;20032;-78
2023/04/17 08:31:30;;;;;;;8.15;5.13;;;31.30;25.30;;;;;;4920034;29;20468;-78
2023/04/17 08:33:59;;;;;;;7.43;5.22;;;32.00;26.40;;;;;;4931749;29;20987;-78
2023/04/17 08:36:25;;;;;;;7.40;4.97;;;32.50;24.90;;;;;;4938208;29;20028;-77
2023/04/17 08:38:51;;;;;;;6.20;4.38;;;33.00;25.20;;;;;;4922677;29;21111;-77
2023/04/17 08:41:23;;;;;;;7.70;5.35;;;33.20;24.50;;;;;;4919841;29;20519;-76
2023/04/17 08:43:52;;;;;;;6.43;4.25;;;33.00;23.20;;;;;;4919595;29;20119;-77
2023/04/17 08:46:20;;;;;;;6.57;4.72;;;33.10;24.00;;;;;;4922106;29;20091;-77
2023/04/17 08:48:46;;;;;;;7.50;4.70;;;32.20;24.60;;;;;;4936396;29;20032;-76
2023/04/17 08:51:12;;;;;;;6.32;4.50;;;32.50;24.90;;;;;;4938263;29;20084;-78
2023/04/17 08:53:38;;;;;;;8.82;5.75;;;32.60;24.60;;;;;;4928801;29;20032;-77
2023/04/17 08:56:05;;;;;;;7.40;4.85;;;31.50;24.30;;;;;;4935111;29;20035;-76
2023/04/17 08:58:32;;;;;;;6.78;4.68;;;29.90;25.30;;;;;;4919655;29;20518;-80
2023/04/17 09:01:09;;;;;;;6.28;4.60;;;28.30;27.60;;;;;;4931393;29;20027;-78
2023/04/17 09:03:43;;;;;;;7.95;4.15;;;27.30;28.80;;;;;;4930604;29;20036;-76
2023/04/17 09:06:10;;;;;;;6.65;4.28;;;26.70;30.40;;;;;;4937295;29;20111;-77
2023/04/17 09:08:37;;;;;;;6.55;3.97;;;26.70;29.70;;;;;;4924114;29;20652;-77
2023/04/17 09:11:03;;;;;;;8.05;4.30;;;26.20;31.30;;;;;;4920747;29;20089;-77
2023/04/17 09:13:32;;;;;;;7.57;3.85;;;25.60;30.70;;;;;;4937871;29;20031;-77
2023/04/17 09:16:09;;;;;;;6.95;3.83;;;25.50;31.20;;;;;;4929110;29;20031;-77
2023/04/17 09:18:37;;;;;;;8.27;3.38;;;25.10;31.60;;;;;;4929388;29;20062;-77
2023/04/17 09:21:04;;;;;;;4.47;2.58;;;24.90;32.70;;;;;;4923671;29;20041;-77
2023/04/17 09:23:44;;;;;;;5.75;2.75;;;25.30;31.50;;;;;;4937026;29;20075;-77
2023/04/17 09:26:15;;;;;;;5.65;2.42;;;26.40;30.00;;;;;;4937975;29;20028;-77
2023/04/17 09:28:42;;;;;;;6.45;2.78;;;26.40;28.50;;;;;;4913906;29;20036;-77
2023/04/17 09:31:17;;;;;;;6.57;2.25;;;26.70;29.10;;;;;;4933686;29;20051;-77
2023/04/17 09:33:58;;;;;;;3.75;2.65;;;27.00;29.00;;;;;;4918251;29;20058;-77
2023/04/17 09:36:26;;;;;;;5.57;2.90;;;28.70;28.00;;;;;;4924995;29;20070;-77
2023/04/17 09:38:55;;;;;;;5.25;2.38;;;29.50;25.80;;;;;;4933679;29;20036;-77
2023/04/17 09:41:31;;;;;;;4.28;2.72;;;29.30;25.90;;;;;;4907643;29;20052;-77
2023/04/17 09:44:05;;;;;;;6.47;2.60;;;28.30;27.00;;;;;;4937492;29;20086;-77
2023/04/17 09:46:31;;;;;;;5.93;2.92;;;27.80;28.10;;;;;;4937291;29;20028;-77
2023/04/17 09:49:00;;;;;;;5.60;2.25;;;28.60;27.40;;;;;;4932406;29;20034;-77
2023/04/17 09:51:27;;;;;;;3.92;2.13;;;28.80;27.50;;;;;;4937902;29;20019;-77
2023/04/17 09:53:57;;;;;;;6.45;2.50;;;28.80;27.60;;;;;;4924175;29;20036;-77
2023/04/17 09:56:25;;;;;;;4.85;2.00;;;28.70;27.40;;;;;;4934155;29;20055;-78
2023/04/17 09:58:52;;;;;;;6.18;2.42;;;28.60;26.60;;;;;;4919563;29;20043;-78
2023/04/17 10:01:18;;;;;;;5.20;2.90;;;28.60;27.20;;;;;;4932009;29;20028;-77
2023/04/17 10:03:44;;;;;;;6.68;3.65;;;27.80;27.10;;;;;;4934329;29;21320;-77
2023/04/17 10:06:11;;;;;;;7.65;3.30;;;26.70;27.40;;;;;;4929718;29;20055;-77
2023/04/17 10:08:36;;;;;;;4.38;3.15;;;26.70;29.10;;;;;;4928350;29;20031;-76
2023/04/17 10:11:06;;;;;;;5.38;2.83;;;26.90;28.10;;;;;;4939854;29;20372;-76
2023/04/17 10:13:37;;;;;;;4.60;3.00;;;26.80;29.90;;;;;;4911739;29;20032;-77
2023/04/17 10:16:04;;;;;;;4.13;2.40;;;26.20;29.30;;;;;;4926478;29;20035;-77
2023/04/17 10:18:30;;;;;;;3.47;2.30;;;26.80;29.20;;;;;;4935251;29;20064;-77
2023/04/17 10:20:56;;;;;;;6.80;2.83;;;26.60;29.80;;;;;;4933529;28;20024;-78
2023/04/17 10:23:27;;;;;;;5.45;2.63;;;26.40;29.30;;;;;;4944491;29;20032;-77
2023/04/17 10:26:23;;;;;;;5.75;2.90;;;26.10;29.80;;;;;;4953945;29;20114;-79
2023/04/17 10:28:49;;;;;;;4.50;2.70;;;25.80;30.60;;;;;;4920067;29;20102;-83
2023/04/17 10:31:15;;;;;;;6.43;3.20;;;25.50;31.00;;;;;;4921777;29;20071;-83
2023/04/17 10:33:51;;;;;;;7.18;3.42;;;24.60;31.20;;;;;;4934609;29;20402;-81
2023/04/17 10:36:39;;;;;;;6.63;3.55;;;24.00;33.70;;;;;;4921907;29;20036;-81
2023/04/17 10:39:11;;;;;;;6.13;2.80;;;23.00;34.80;;;;;;4922248;29;20109;-84
2023/04/17 10:42:03;;;;;;;5.82;2.70;;;23.20;35.20;;;;;;4930494;29;20027;-79
2023/04/17 10:44:38;;;;;;;7.50;2.85;;;23.30;34.40;;;;;;4937641;29;20521;-80
2023/04/17 10:47:13;;;;;;;5.28;2.42;;;23.30;34.30;;;;;;4921565;29;20040;-83
2023/04/17 10:49:48;;;;;;;5.78;2.65;;;23.20;35.00;;;;;;4921936;29;20024;-77
2023/04/17 10:52:43;;;;;;;3.20;2.50;;;23.10;34.50;;;;;;4937760;29;20116;-82
2023/04/17 10:55:19;;;;;;;6.20;2.42;;;22.90;34.30;;;;;;4940979;29;20659;-77
2023/04/17 10:57:58;;;;;;;4.30;2.67;;;22.60;35.10;;;;;;4936304;29;20024;-80
2023/04/17 11:00:35;;;;;;;5.03;2.17;;;22.50;34.60;;;;;;4927631;29;20040;-80
2023/04/17 11:03:02;;;;;;;5.80;2.30;;;22.50;34.80;;;;;;4932105;29;20028;-80
2023/04/17 11:05:30;;;;;;;5.53;2.15;;;22.40;35.30;;;;;;4931157;29;20035;-80
2023/04/17 11:07:56;;;;;;;4.50;2.05;;;22.40;35.70;;;;;;4948228;29;20098;-79
2023/04/17 11:10:22;;;;;;;3.95;2.42;;;22.30;34.60;;;;;;4949767;29;20023;-79
2023/04/17 11:12:52;;;;;;;5.32;2.50;;;21.90;34.50;;;;;;4950594;29;20580;-80
2023/04/17 11:15:29;;;;;;;3.67;2.10;;;21.50;36.20;;;;;;4946336;29;20023;-80
2023/04/17 11:17:55;;;;;;;4.40;1.83;;;21.60;36.20;;;;;;4944057;29;20495;-81
2023/04/17 11:20:26;;;;;;;5.22;1.92;;;21.60;36.50;;;;;;4949001;29;20106;-81
2023/04/17 11:22:52;;;;;;;3.75;1.63;;;21.70;35.70;;;;;;4941978;29;20111;-77
2023/04/17 11:25:27;;;;;;;3.92;2.67;;;21.70;35.00;;;;;;4924100;29;20115;-78
2023/04/17 11:28:02;;;;;;;4.75;2.22;;;21.30;34.70;;;;;;4924944;29;20028;-77
2023/04/17 11:30:32;;;;;;;4.28;2.72;;;21.30;36.50;;;;;;4934157;29;20075;-81
2023/04/17 11:33:06;;;;;;;6.00;3.20;;;21.40;37.10;;;;;;4932523;29;20035;-80
2023/04/17 11:35:34;;;;;;;6.13;2.88;;;21.70;37.30;;;;;;4932473;29;20058;-80
2023/04/17 11:38:13;;;;;;;5.13;2.35;;;21.80;36.70;;;;;;4938183;29;20084;-80
2023/04/17 11:40:59;;;;;;;5.40;2.97;;;21.70;36.50;;;;;;4938710;29;20502;-80
2023/04/17 11:43:25;;;;;;;5.20;2.13;;;21.60;36.00;;;;;;4935137;29;20032;-80
2023/04/17 11:45:55;;;;;;;2.67;1.48;;;21.60;35.70;;;;;;4920950;29;20051;-81
2023/04/17 11:48:22;;;;;;;5.03;2.30;;;21.60;35.50;;;;;;4920774;29;20108;-80
2023/04/17 11:50:48;;;;;;;3.92;2.55;;;21.00;35.80;;;;;;4918705;29;20696;-81
2023/04/17 11:53:15;;;;;;;5.10;3.28;;;21.10;36.50;;;;;;4918917;29;20028;-81
2023/04/17 11:55:42;;;;;;;3.47;2.20;;;20.80;35.20;;;;;;4918904;29;20020;-81
2023/04/17 11:58:10;;;;;;;6.32;3.30;;;20.90;36.40;;;;;;4919314;29;20384;-81
2023/04/17 12:00:36;;;;;;;3.65;2.80;;;20.80;34.80;;;;;;4920331;29;20039;-81
2023/04/17 12:03:26;;;;;;;3.10;2.38;;;20.60;37.30;;;;;;4920343;29;20024;-81
2023/04/17 12:05:59;;;;;;;7.35;2.65;;;20.80;37.30;;;;;;4936182;29;20031;-81
2023/04/17 12:08:25;;;;;;;3.78;2.40;;;20.90;36.30;;;;;;4938831;29;20040;-81
2023/04/17 12:10:50;;;;;;;5.10;2.33;;;21.00;35.80;;;;;;4942047;29;20111;-81
2023/04/17 12:13:16;;;;;;;4.70;2.65;;;21.20;36.90;;;;;;4956759;29;20035;-81
2023/04/17 12:15:42;;;;;;;4.85;2.92;;;20.80;36.40;;;;;;4957331;29;20066;-81
2023/04/17 12:18:08;;;;;;;7.70;3.78;;;20.90;37.20;;;;;;4958313;29;20031;-81
2023/04/17 12:20:37;;;;;;;8.23;2.83;;;21.00;37.50;;;;;;4920151;29;20119;-81
2023/04/17 12:23:04;;;;;;;3.80;2.40;;;21.20;37.00;;;;;;4907725;29;20091;-81
2023/04/17 12:25:31;;;;;;;7.88;3.28;;;21.40;36.90;;;;;;4920116;29;20020;-81
2023/04/17 12:27:58;;;;;;;5.65;3.35;;;21.10;37.60;;;;;;4919556;29;20051;-81
2023/04/17 12:30:27;;;;;;;5.63;2.50;;;21.10;37.70;;;;;;4919281;29;20076;-81
2023/04/17 12:32:53;;;;;;;5.38;2.58;;;21.20;37.40;;;;;;4923681;29;20023;-81
2023/04/17 12:35:20;;;;;;;10.07;3.60;;;21.20;36.50;;;;;;4938996;29;20495;-81
2023/04/17 12:37:50;;;;;;;5.18;3.30;;;21.30;36.70;;;;;;4938783;29;20498;-81
2023/04/17 12:40:16;;;;;;;;;;;21.30;36.30;;;;;;4920876;29;20554;-81
2023/04/17 12:42:42;;;;;;;5.55;3.92;;;21.10;37.20;;;;;;4938532;29;19911;-81
2023/04/17 12:45:08;;;;;;;5.07;3.03;;;20.80;37.00;;;;;;4919394;29;20032;-81
2023/04/17 12:47:34;;;;;;;9.23;4.03;;;20.80;37.70;;;;;;4919381;29;20542;-80
2023/04/17 12:50:00;;;;;;;4.72;2.85;;;20.80;37.60;;;;;;4925743;29;20028;-82
2023/04/17 12:52:26;;;;;;;6.88;3.13;;;20.80;37.60;;;;;;4918495;29;20364;-81
2023/04/17 12:54:57;;;;;;;4.47;2.88;;;20.80;38.20;;;;;;4933325;29;20027;-81
2023/04/17 12:57:23;;;;;;;4.53;2.78;;;21.00;37.90;;;;;;4938389;29;20031;-81
2023/04/17 12:59:49;;;;;;;5.60;3.15;;;21.10;37.10;;;;;;4919618;29;20411;-81
2023/04/17 13:02:15;;;;;;;4.60;3.20;;;21.10;36.30;;;;;;4919315;29;20071;-81
2023/04/17 13:04:40;;;;;;;5.50;3.35;;;21.00;36.10;;;;;;4923858;29;20056;-81
2023/04/17 13:07:06;;;;;;;5.40;2.95;;;20.90;36.20;;;;;;4938475;29;20443;-81
2023/04/17 13:09:32;;;;;;;4.68;2.60;;;20.80;37.20;;;;;;4938796;29;20028;-81
2023/04/17 13:11:58;;;;;;;4.93;3.22;;;21.00;36.20;;;;;;4952366;29;20027;-81
2023/04/17 13:14:23;;;;;;;8.15;3.38;;;20.90;35.20;;;;;;4938799;29;20867;-81
2023/04/17 13:16:49;;;;;;;5.90;2.97;;;20.70;34.50;;;;;;4919369;29;20391;-81
2023/04/17 13:19:15;;;;;;;5.38;3.15;;;20.70;36.10;;;;;;4923416;29;20589;-81
2023/04/17 13:21:41;;;;;;;6.10;3.50;;;20.90;36.10;;;;;;4937936;29;20395;-82
2023/04/17 13:24:13;;;;;;;4.68;3.05;;;21.10;37.00;;;;;;4926882;29;20043;-81
2023/04/17 13:26:41;;;;;;;5.38;3.13;;;21.00;37.50;;;;;;4902330;29;20407;-81
2023/04/17 13:29:07;;;;;;;4.85;2.55;;;21.00;36.30;;;;;;4915162;29;20031;-82
2023/04/17 13:31:33;;;;;;;4.85;2.88;;;21.10;36.10;;;;;;4937078;29;20407;-83
2023/04/17 13:34:02;;;;;;;3.78;2.60;;;21.20;36.20;;;;;;4917741;29;20451;-82
2023/04/17 13:36:28;;;;;;;6.25;2.80;;;21.10;35.80;;;;;;4921014;29;20038;-82
2023/04/17 13:38:53;;;;;;;6.90;3.25;;;21.30;36.80;;;;;;4937997;29;20466;-82
2023/04/17 13:41:19;;;;;;;7.80;3.20;;;21.30;35.80;;;;;;4916693;29;20036;-82
2023/04/17 13:43:45;;;;;;;7.35;3.22;;;21.30;37.00;;;;;;4901937;29;20032;-82
2023/04/17 13:46:14;;;;;;;5.13;3.47;;;21.10;36.60;;;;;;4919048;29;20043;-82
2023/04/17 13:48:41;;;;;;;4.90;3.25;;;21.00;36.90;;;;;;4918844;29;20024;-82
2023/04/17 13:51:07;;;;;;;3.88;3.00;;;21.00;36.80;;;;;;4919160;29;20492;-82
2023/04/17 13:53:32;;;;;;;5.97;3.30;;;21.00;37.40;;;;;;4917451;29;20028;-83
2023/04/17 13:55:58;;;;;;;4.30;2.72;;;21.00;37.50;;;;;;4917999;29;20024;-83
2023/04/17 13:58:24;;;;;;;5.65;2.50;;;21.00;36.10;;;;;;4922331;29;20032;-83
2023/04/17 14:00:50;;;;;;;4.80;2.88;;;21.00;35.60;;;;;;4922098;29;20020;-83
2023/04/17 14:03:16;;;;;;;5.28;2.50;;;20.80;35.50;;;;;;4922786;29;20107;-83
2023/04/17 14:05:42;;;;;;;4.70;2.42;;;20.80;36.00;;;;;;4922817;29;20058;-83
2023/04/17 14:08:08;;;;;;;3.60;1.95;;;20.80;34.90;;;;;;4922745;29;20056;-83
2023/04/17 14:10:34;;;;;;;3.90;1.80;;;20.80;34.40;;;;;;4927174;29;20035;-83
2023/04/17 14:13:00;;;;;;;4.22;1.98;;;20.80;34.30;;;;;;4960428;29;20019;-83
2023/04/17 14:15:26;;;;;;;5.38;2.50;;;20.90;34.60;;;;;;4942924;29;20055;-78
2023/04/17 14:17:51;;;;;;;4.18;2.60;;;20.90;34.40;;;;;;4932953;29;20164;-77
2023/04/17 14:20:18;;;;;;;4.35;2.78;;;20.80;34.70;;;;;;4921024;29;20024;-78
2023/04/17 14:22:45;;;;;;;5.15;2.60;;;20.90;35.50;;;;;;4921370;29;20051;-78
2023/04/17 14:25:12;;;;;;;4.63;2.42;;;20.90;35.10;;;;;;4919273;29;20036;-83
2023/04/17 14:27:37;;;;;;;4.00;2.55;;;21.00;35.40;;;;;;4950806;29;20032;-82
2023/04/17 14:30:04;;;;;;;6.80;3.35;;;21.20;36.00;;;;;;4947302;29;20039;-81
2023/04/17 14:32:30;;;;;;;3.78;3.03;;;21.20;35.50;;;;;;4948003;29;20055;-85
2023/04/17 14:34:55;;;;;;;8.18;3.28;;;21.10;35.90;;;;;;4932369;29;20442;-83
2023/04/17 14:37:21;;;;;;;6.20;2.92;;;20.80;35.90;;;;;;4947375;29;20039;-84
2023/04/17 14:39:47;;;;;;;3.40;2.70;;;20.80;36.60;;;;;;4949011;29;20031;-83
2023/04/17 14:42:12;;;;;;;5.22;3.00;;;20.80;36.70;;;;;;4940569;29;20066;-83
2023/04/17 14:44:38;;;;;;;4.43;3.00;;;20.80;37.30;;;;;;4926529;29;20059;-85
2023/04/17 14:47:04;;;;;;;5.40;3.40;;;20.80;36.90;;;;;;4933055;29;20491;-80
2023/04/17 14:49:29;;;;;;;4.47;2.70;;;20.70;35.60;;;;;;4924844;29;20032;-80
2023/04/17 14:51:55;;;;;;;4.47;2.85;;;20.40;36.20;;;;;;4929316;29;20099;-78
2023/04/17 14:54:21;;;;;;;4.15;2.80;;;20.70;38.50;;;;;;4920234;29;20126;-84
2023/04/17 14:56:47;;;;;;;4.35;3.00;;;20.80;37.00;;;;;;4912254;29;20287;-84
2023/04/17 14:59:12;;;;;;;4.68;3.75;;;20.80;37.50;;;;;;4920433;29;20040;-83
2023/04/17 15:01:38;;;;;;;3.75;3.38;;;20.80;37.20;;;;;;4935759;29;20036;-83
2023/04/17 15:04:03;;;;;;;4.00;3.53;;;20.60;37.80;;;;;;4919643;29;20043;-84
2023/04/17 15:06:29;;;;;;;5.88;3.88;;;20.50;38.00;;;;;;4939557;29;20448;-83
2023/04/17 15:08:55;;;;;;;4.53;3.53;;;20.50;37.10;;;;;;4939042;29;20372;-83
2023/04/17 15:11:21;;;;;;;5.75;4.40;;;20.60;37.60;;;;;;4927562;29;20028;-84
2023/04/17 15:13:46;;;;;;;5.38;4.75;;;20.60;37.70;;;;;;4937209;29;20028;-83
2023/04/17 15:16:12;;;;;;;5.88;5.30;;;20.40;37.70;;;;;;4916242;29;20039;-83
2023/04/17 15:18:38;;;;;;;7.72;5.55;;;20.20;37.80;;;;;;4937752;29;20039;-85
2023/04/17 15:21:04;;;;;;;6.57;4.72;;;20.10;37.30;;;;;;4924822;29;20032;-83
2023/04/17 15:23:33;;;;;;;8.98;7.22;;;20.10;38.40;;;;;;4935034;29;20032;-83
2023/04/17 15:26:00;;;;;;;5.10;4.50;;;20.20;37.20;;;;;;4934419;29;20043;-82
2023/04/17 15:28:26;;;;;;;5.45;4.35;;;20.10;36.70;;;;;;4923961;29;20031;-82
2023/04/17 15:30:52;;;;;;;6.13;4.65;;;20.20;37.20;;;;;;4938272;29;20056;-83
2023/04/17 15:33:17;;;;;;;5.25;4.25;;;20.20;37.00;;;;;;4936165;29;20031;-83
2023/04/17 15:35:43;;;;;;;5.57;4.80;;;20.30;37.90;;;;;;4940130;29;20402;-83
2023/04/17 15:38:09;;;;;;;5.90;4.85;;;20.30;37.30;;;;;;4920641;29;20499;-83
2023/04/17 15:40:34;;;;;;;4.70;4.30;;;20.20;37.10;;;;;;4929520;29;20403;-82
2023/04/17 15:43:00;;;;;;;5.45;4.88;;;20.10;38.20;;;;;;4938916;29;20070;-82
2023/04/17 15:45:26;;;;;;;5.45;4.95;;;19.90;38.30;;;;;;4932310;29;20032;-82
2023/04/17 15:47:53;;;;;;;5.18;4.50;;;20.00;39.10;;;;;;4905641;29;20727;-83
2023/04/17 15:50:19;;;;;;;8.43;5.65;;;19.90;39.00;;;;;;4922272;29;20032;-82
2023/04/17 15:52:45;;;;;;;6.35;5.07;;;19.90;39.10;;;;;;4918775;29;20039;-82
2023/04/17 15:55:11;;;;;;;5.45;4.90;;;20.00;38.60;;;;;;4941621;29;20450;-82
2023/04/17 15:57:37;;;;;;;5.57;4.10;;;19.90;38.50;;;;;;4939068;29;20087;-82
2023/04/17 16:00:03;;;;;;;6.68;4.93;;;19.90;38.50;;;;;;4923096;29;20036;-81
2023/04/17 16:02:29;;;;;;;6.07;5.47;;;19.90;39.20;;;;;;4921906;29;20039;-82
2023/04/17 16:04:55;;;;;;;7.20;5.85;;;19.90;39.00;;;;;;4943682;29;20027;-82
2023/04/17 16:07:22;;;;;;;10.43;6.30;;;19.80;39.20;;;;;;4940859;29;20042;-82
2023/04/17 16:09:49;;;;;;;9.07;6.07;;;19.80;39.50;;;;;;4938685;29;20027;-82
2023/04/17 16:12:15;;;;;;;10.65;5.88;;;19.80;39.60;;;;;;4941182;29;21286;-82
2023/04/17 16:14:41;;;;;;;10.07;6.88;;;19.70;40.00;;;;;;4935134;29;20023;-82
2023/04/17 16:17:06;;;;;;;10.07;7.22;;;19.60;40.30;;;;;;4938764;29;20067;-83
2023/04/17 16:19:32;;;;;;;8.32;6.82;;;19.40;41.00;;;;;;4936934;29;20028;-82
2023/04/17 16:21:58;;;;;;;10.25;7.40;;;19.30;41.00;;;;;;4942442;29;20139;-82
2023/04/17 16:24:24;;;;;;;9.02;6.60;;;19.30;41.30;;;;;;4938703;29;20090;-83
2023/04/17 16:26:57;;;;;;;9.70;6.90;;;19.50;41.00;;;;;;4912838;29;20582;-82
2023/04/17 16:29:24;;;;;;;7.57;6.47;;;19.60;41.20;;;;;;4938118;29;20038;-82
2023/04/17 16:31:50;;;;;;;8.43;5.80;;;19.50;40.90;;;;;;4931068;29;20079;-82
2023/04/17 16:34:16;;;;;;;7.82;6.28;;;19.60;40.50;;;;;;4906892;23;20026;-81
2023/04/17 16:36:41;;;;;;;9.45;5.45;;;19.60;40.30;;;;;;4948565;29;20047;-83
2023/04/17 16:39:07;;;;;;;6.03;5.40;;;19.50;40.40;;;;;;4957334;29;20035;-82
2023/04/17 16:41:34;;;;;;;8.40;5.68;;;19.50;40.70;;;;;;4947656;29;20027;-82
2023/04/17 16:44:00;;;;;;;5.60;4.90;;;19.50;40.90;;;;;;4956085;29;20023;-82
2023/04/17 16:46:25;;;;;;;6.78;4.72;;;19.60;40.90;;;;;;4936784;29;20040;-82
2023/04/17 16:48:52;;;;;;;7.35;4.38;;;19.70;41.10;;;;;;4928577;29;20503;-83
2023/04/17 16:51:19;;;;;;;6.20;5.20;;;19.70;41.00;;;;;;4936656;29;20063;-82
2023/04/17 16:53:47;;;;;;;6.13;4.50;;;19.60;40.90;;;;;;4939344;29;20497;-82
2023/04/17 16:56:13;;;;;;;5.50;4.30;;;19.60;41.00;;;;;;4945345;29;20047;-83
2023/04/17 16:58:39;;;;;;;4.53;4.03;;;19.60;41.20;;;;;;4940449;29;20031;-83
2023/04/17 17:01:04;;;;;;;9.75;4.47;;;19.50;41.00;;;;;;4948546;28;20040;-82
2023/04/17 17:03:32;;;;;;;6.75;4.65;;;19.40;41.30;;;;;;4941628;29;20031;-83
2023/04/17 17:05:58;;;;;;;6.50;4.50;;;19.40;41.50;;;;;;4957430;29;20096;-78
2023/04/17 17:08:24;;;;;;;5.32;3.55;;;19.40;41.40;;;;;;4941370;29;20545;-77
2023/04/17 17:10:50;;;;;;;5.82;3.85;;;19.40;41.70;;;;;;4958173;28;20042;-88
2023/04/17 17:13:15;;;;;;;6.47;4.03;;;19.50;41.80;;;;;;4939550;29;20066;-81
2023/04/17 17:15:41;;;;;;;8.30;4.65;;;19.40;41.80;;;;;;4957207;29;20099;-81
2023/04/17 17:18:07;;;;;;;7.00;4.18;;;19.30;41.30;;;;;;4956383;29;20034;-85